Aérodrome :
LOGIN :

S'inscrire | Disclaimer

   EN    FR    IT 

 










Légende :    VFR   VFR Marginal   IFR   IFR Intensif   IFR Très Intensif
Visi : 
Plafond : 
>= 8 km
>= 3000ft
5 à 8 km
1000 à 3000 ft
1500m à 5 km
500 à 1000 ft
800 à 1500m
200 à 500 ft
< 800m
< 200 ft
Symboles :   Orages  Brouillard  Fortes neiges  Fortes précipitations  Vent > 20 kt
SIGMETs :   Divers  Orages  Givrage  Turbulence  Onde Orograph.  Cendres Volcan.







- Altitude de l'aérodrome : 510 ft


LJCE - Cerklje

DERNIER METAR :
  • 240830Z 03002KT 9999 FEW038 SCT066 20/10 Q1020 RMK BLU

METARs EXPIRÉS :
  • 240800Z 07003KT 010V110 9999 FEW035 19/11 Q1020 RMK BLU
  • 240730Z 05003KT 330V130 9999 FEW028 SCT130 18/12 Q1020 RMK BLU
  • 240700Z 03002KT 9999 FEW028 SCT130 17/11 Q1020 RMK BLU
  • 240630Z 11001KT 9999 FEW024 SCT130 16/11 Q1020 RMK BLU
  • 240600Z 00000KT CAVOK 15/12 Q1020 RMK BLU

TAF TAF LJCE
Valide du 24 à 09h jusqu'au 24 à 18h UTC


240800Z 2409/2418 08005KT 9999 FEW040 SCT120
Pas de NOTAMs connus pour ce terrain.



MET'MAP, la Météo Aéronautique d'un coup d'oeil ! - Copyright ORBIFLY Décembre 2007 - Disclaimer

ORBIFLY MET'MAP TEAM :

Programmation & Développement : Alexandra Zaïnal
Conception & Développement : Baudouin d'Aumeries
Co-Programmation & Développement : Marc-Olivier Méhu
Soutien technique & logistique : Manuel Goepfert

Contact : metmap@orbifly.com




SOURCES & CREDITS :

   NOAA